createdAt,value
2023-05-05T00:00:16.124Z,11.43
2023-05-05T00:02:44.748Z,11.40
2023-05-05T00:05:13.282Z,11.48
2023-05-05T00:07:42.009Z,10.44
2023-05-05T00:10:11.331Z,10.15
2023-05-05T00:12:39.810Z,9.50
2023-05-05T00:15:09.304Z,9.20
2023-05-05T00:17:39.216Z,8.79
2023-05-05T00:20:10.112Z,9.68
2023-05-05T00:22:38.762Z,10.42
2023-05-05T00:25:07.917Z,10.50
2023-05-05T00:27:37.419Z,10.08
2023-05-05T00:30:08.684Z,10.71
2023-05-05T00:32:38.707Z,10.46
2023-05-05T00:35:08.599Z,10.37
2023-05-05T00:37:37.628Z,10.25
2023-05-05T00:40:07.250Z,10.23
2023-05-05T00:42:43.286Z,10.21
2023-05-05T00:45:13.189Z,10.20
2023-05-05T00:47:44.304Z,10.31
2023-05-05T00:50:21.729Z,10.37
2023-05-05T00:52:50.772Z,10.40
2023-05-05T00:55:19.759Z,10.41
2023-05-05T00:57:49.932Z,10.41
2023-05-05T01:00:19.154Z,10.58
2023-05-05T01:02:49.094Z,10.56
2023-05-05T01:05:19.188Z,10.29
2023-05-05T01:07:58.965Z,10.17
2023-05-05T01:10:36.886Z,10.04
2023-05-05T01:13:16.233Z,9.96
2023-05-05T01:15:50.889Z,9.88
2023-05-05T01:18:28.685Z,9.95
2023-05-05T01:21:03.255Z,9.91
2023-05-05T01:23:48.955Z,9.90
2023-05-05T01:26:36.084Z,10.03
2023-05-05T01:29:25.303Z,9.86
2023-05-05T01:31:58.567Z,9.94
2023-05-05T01:34:33.547Z,9.91
2023-05-05T01:37:08.868Z,10.01
2023-05-05T01:39:38.943Z,9.99
2023-05-05T01:42:13.991Z,9.49
2023-05-05T01:44:44.783Z,9.41
2023-05-05T01:47:17.146Z,9.44
2023-05-05T01:49:47.932Z,9.73
2023-05-05T01:52:17.943Z,9.93
2023-05-05T01:54:49.237Z,9.98
2023-05-05T01:57:19.359Z,10.10
2023-05-05T01:59:47.870Z,9.97
2023-05-05T02:02:20.189Z,10.07
2023-05-05T02:04:50.696Z,10.20
2023-05-05T02:07:20.902Z,10.00
2023-05-05T02:09:50.370Z,9.09
2023-05-05T02:12:21.292Z,8.87
2023-05-05T02:14:52.373Z,9.11
2023-05-05T02:17:23.835Z,8.55
2023-05-05T02:19:53.820Z,8.98
2023-05-05T02:22:22.331Z,8.46
2023-05-05T02:24:50.681Z,8.69
2023-05-05T02:27:24.389Z,8.47
2023-05-05T02:29:58.755Z,9.42
2023-05-05T02:32:34.980Z,9.90
2023-05-05T02:35:10.967Z,9.57
2023-05-05T02:37:47.985Z,9.67
2023-05-05T02:40:22.159Z,9.34
2023-05-05T02:42:55.349Z,8.62
2023-05-05T02:45:30.174Z,8.52
2023-05-05T02:48:04.234Z,8.79
2023-05-05T02:50:36.572Z,10.36
2023-05-05T02:53:15.052Z,10.02
2023-05-05T02:55:51.820Z,11.25
2023-05-05T02:58:30.699Z,12.01
2023-05-05T03:01:08.489Z,12.71
2023-05-05T03:03:44.480Z,12.92
2023-05-05T03:06:18.749Z,13.33
2023-05-05T03:08:55.131Z,13.94
2023-05-05T03:11:28.819Z,13.91
2023-05-05T03:14:07.225Z,12.36
2023-05-05T03:16:38.126Z,11.41
2023-05-05T03:19:11.601Z,11.18
2023-05-05T03:21:41.423Z,11.21
2023-05-05T03:24:15.579Z,11.65
2023-05-05T03:26:48.527Z,11.34
2023-05-05T03:29:18.434Z,11.04
2023-05-05T03:31:46.868Z,10.98
2023-05-05T03:34:16.842Z,10.71
2023-05-05T03:36:48.392Z,10.82
2023-05-05T03:39:18.950Z,10.83
2023-05-05T03:41:48.446Z,10.48
2023-05-05T03:44:17.965Z,10.74
2023-05-05T03:46:46.518Z,10.71
2023-05-05T03:49:18.022Z,11.19
2023-05-05T03:51:48.554Z,10.65
2023-05-05T03:54:17.240Z,11.14
2023-05-05T03:56:45.767Z,10.61
2023-05-05T03:59:14.213Z,10.58
2023-05-05T04:01:42.910Z,10.25
2023-05-05T04:04:11.530Z,10.21
2023-05-05T04:06:41.367Z,10.17
2023-05-05T04:09:12.117Z,10.52
2023-05-05T04:11:40.567Z,10.68
2023-05-05T04:14:09.173Z,10.70
2023-05-05T04:16:37.680Z,10.76
2023-05-05T04:19:06.255Z,11.36
2023-05-05T04:21:34.837Z,11.52
2023-05-05T04:24:04.726Z,11.52
2023-05-05T04:26:33.148Z,11.11
2023-05-05T04:29:01.691Z,11.31
2023-05-05T04:31:32.125Z,11.13
2023-05-05T04:34:01.228Z,11.15
2023-05-05T04:36:32.705Z,10.94
2023-05-05T04:39:03.791Z,10.57
2023-05-05T04:41:34.248Z,10.26
2023-05-05T04:44:02.941Z,10.13
2023-05-05T04:46:32.276Z,9.92
2023-05-05T04:49:03.549Z,9.96
2023-05-05T04:51:42.854Z,10.10
2023-05-05T04:54:11.072Z,9.81
2023-05-05T04:57:06.564Z,10.54
2023-05-05T04:59:41.354Z,10.03
2023-05-05T05:02:10.096Z,9.91
2023-05-05T05:04:38.664Z,9.80
2023-05-05T05:07:07.100Z,10.30
2023-05-05T05:09:35.631Z,10.51
2023-05-05T05:12:08.059Z,10.31
2023-05-05T05:14:38.584Z,10.18
2023-05-05T05:17:07.596Z,9.57
2023-05-05T05:19:36.170Z,10.09
2023-05-05T05:22:05.353Z,9.53
2023-05-05T05:24:36.550Z,10.04
2023-05-05T05:27:10.181Z,9.50
2023-05-05T05:29:41.064Z,9.63
2023-05-05T05:32:09.710Z,9.49
2023-05-05T05:34:41.329Z,9.45
2023-05-05T05:37:11.241Z,9.82
2023-05-05T05:39:41.921Z,9.46
2023-05-05T05:42:13.160Z,9.90
2023-05-05T05:44:42.007Z,9.81
2023-05-05T05:47:13.574Z,9.38
2023-05-05T05:49:42.111Z,9.56
2023-05-05T05:52:11.056Z,10.09
2023-05-05T05:54:40.194Z,10.22
2023-05-05T05:57:09.754Z,9.85
2023-05-05T05:59:39.749Z,10.37
2023-05-05T06:02:09.721Z,10.97
2023-05-05T06:04:41.443Z,10.79
2023-05-05T06:07:11.260Z,10.45
2023-05-05T06:09:39.747Z,10.18
2023-05-05T06:12:08.394Z,11.24
2023-05-05T06:14:37.086Z,11.09
2023-05-05T06:17:07.174Z,10.43
2023-05-05T06:19:39.396Z,10.90
2023-05-05T06:22:08.331Z,10.56
2023-05-05T06:24:37.522Z,10.76
2023-05-05T06:27:06.071Z,11.56
2023-05-05T06:29:34.493Z,11.37
2023-05-05T06:32:02.817Z,11.21
2023-05-05T06:34:32.704Z,10.98
2023-05-05T06:37:01.227Z,11.23
2023-05-05T06:39:29.582Z,10.90
2023-05-05T06:41:58.052Z,10.41
2023-05-05T06:44:26.408Z,10.95
2023-05-05T06:46:55.473Z,11.31
2023-05-05T06:49:23.982Z,11.56
2023-05-05T06:51:53.729Z,11.38
2023-05-05T06:54:22.207Z,10.44
2023-05-05T06:56:50.500Z,10.65
2023-05-05T06:59:18.917Z,10.55
2023-05-05T07:01:47.639Z,10.64
2023-05-05T07:04:16.547Z,10.46
2023-05-05T07:06:44.688Z,10.98
2023-05-05T07:09:16.888Z,10.06
2023-05-05T07:11:45.615Z,9.91
2023-05-05T07:14:14.034Z,10.40
2023-05-05T07:16:42.407Z,10.27
2023-05-05T07:19:10.777Z,10.42
2023-05-05T07:21:39.910Z,10.48
2023-05-05T07:24:09.876Z,10.81
2023-05-05T07:26:39.938Z,10.25
2023-05-05T07:29:08.615Z,9.74
2023-05-05T07:31:37.008Z,10.42
2023-05-05T07:34:07.338Z,10.73
2023-05-05T07:36:35.918Z,10.50
2023-05-05T07:39:05.914Z,10.00
2023-05-05T07:41:34.878Z,10.39
2023-05-05T07:44:05.113Z,10.24
2023-05-05T07:46:33.774Z,10.64
2023-05-05T07:49:02.258Z,10.84
2023-05-05T07:51:33.271Z,11.23
2023-05-05T07:54:03.057Z,12.24
2023-05-05T07:56:31.457Z,12.28
2023-05-05T07:58:59.836Z,10.73
2023-05-05T08:01:29.658Z,11.28
2023-05-05T08:03:58.159Z,12.20
2023-05-05T08:06:28.687Z,11.77
2023-05-05T08:08:57.405Z,11.64
2023-05-05T08:11:29.457Z,11.12
2023-05-05T08:13:58.110Z,10.34
2023-05-05T08:16:26.532Z,9.48
2023-05-05T08:18:56.251Z,11.04
2023-05-05T08:21:24.590Z,10.76
2023-05-05T08:23:52.954Z,10.82
2023-05-05T08:26:22.984Z,10.67
2023-05-05T08:28:55.181Z,10.90
2023-05-05T08:31:23.838Z,10.65
2023-05-05T08:33:52.166Z,10.83
2023-05-05T08:36:22.064Z,10.76
2023-05-05T08:38:50.529Z,10.88
2023-05-05T08:41:20.127Z,10.64
2023-05-05T08:43:49.443Z,11.28
2023-05-05T08:46:18.092Z,10.59
2023-05-05T08:48:46.494Z,9.04
2023-05-05T08:51:19.258Z,10.07
2023-05-05T08:53:57.715Z,10.70
2023-05-05T08:56:28.698Z,10.46
2023-05-05T08:58:58.613Z,9.00
2023-05-05T09:01:27.490Z,9.03
2023-05-05T09:03:56.975Z,8.70
2023-05-05T09:06:26.995Z,7.30
2023-05-05T09:08:59.018Z,7.89
2023-05-05T09:11:28.229Z,7.88
2023-05-05T09:13:56.947Z,7.83
2023-05-05T09:16:25.434Z,8.01
2023-05-05T09:19:02.970Z,7.35
2023-05-05T09:21:32.200Z,8.17
2023-05-05T09:24:12.320Z,8.19
2023-05-05T09:26:43.642Z,8.24
2023-05-05T09:29:19.725Z,8.42
2023-05-05T09:32:05.846Z,8.38
2023-05-05T09:34:36.399Z,8.50
2023-05-05T09:37:06.197Z,8.50
2023-05-05T09:39:36.353Z,8.67
2023-05-05T09:42:05.006Z,9.34
2023-05-05T09:44:37.633Z,9.16
2023-05-05T09:47:18.150Z,9.64
2023-05-05T09:49:59.911Z,9.31
2023-05-05T09:52:29.254Z,8.71
2023-05-05T09:54:59.204Z,8.10
2023-05-05T09:57:29.305Z,8.79
2023-05-05T09:59:59.035Z,9.03
2023-05-05T10:02:34.774Z,9.35
2023-05-05T10:05:08.352Z,9.25
2023-05-05T10:07:38.225Z,10.19
2023-05-05T10:10:10.523Z,9.88
2023-05-05T10:12:40.530Z,10.44
2023-05-05T10:15:10.660Z,10.10
2023-05-05T10:17:57.941Z,9.87
2023-05-05T10:20:36.470Z,9.86
2023-05-05T10:23:08.761Z,11.37
2023-05-05T10:25:43.681Z,9.79
2023-05-05T10:28:17.947Z,10.16
2023-05-05T10:30:50.694Z,11.53
2023-05-05T10:33:31.914Z,10.62
2023-05-05T10:36:03.431Z,10.24
2023-05-05T10:38:32.773Z,10.34
2023-05-05T10:41:03.150Z,10.13
2023-05-05T10:43:32.332Z,10.57
2023-05-05T10:46:01.717Z,10.39
2023-05-05T10:48:39.228Z,9.68
2023-05-05T10:51:38.545Z,9.82
2023-05-05T10:54:15.424Z,10.12
2023-05-05T10:56:45.619Z,9.61
2023-05-05T10:59:41.665Z,10.32
2023-05-05T11:02:25.182Z,9.46
2023-05-05T11:05:15.312Z,9.82
2023-05-05T11:07:44.242Z,9.34
2023-05-05T11:10:13.896Z,9.27
2023-05-05T11:13:15.946Z,9.53
2023-05-05T11:15:45.967Z,9.13
2023-05-05T11:18:30.764Z,9.88
2023-05-05T11:21:17.012Z,9.46
2023-05-05T11:23:47.826Z,9.32
2023-05-05T11:26:17.627Z,9.69
2023-05-05T11:29:04.833Z,9.02
2023-05-05T11:31:34.934Z,8.82
2023-05-05T11:34:26.262Z,10.34
2023-05-05T11:37:01.674Z,9.95
2023-05-05T11:39:39.457Z,9.21
2023-05-05T11:42:32.003Z,9.78
2023-05-05T11:45:00.900Z,9.29
2023-05-05T11:47:31.161Z,9.40
2023-05-05T11:50:00.006Z,9.55
2023-05-05T11:52:28.723Z,9.73
2023-05-05T11:55:03.872Z,10.17
2023-05-05T11:57:32.751Z,10.03
2023-05-05T12:00:02.560Z,9.44
2023-05-05T12:02:37.307Z,9.71
2023-05-05T12:05:06.790Z,9.20
2023-05-05T12:07:35.202Z,9.21
2023-05-05T12:10:03.674Z,8.71
2023-05-05T12:12:37.182Z,8.99
2023-05-05T12:15:06.612Z,9.58
2023-05-05T12:17:42.627Z,9.29
2023-05-05T12:20:12.830Z,9.22
2023-05-05T12:22:41.917Z,8.85
2023-05-05T12:25:11.177Z,9.08
2023-05-05T12:27:39.849Z,8.94
2023-05-05T12:30:16.829Z,9.35
2023-05-05T12:32:47.269Z,9.92
2023-05-05T12:35:16.193Z,9.31
2023-05-05T12:37:44.889Z,9.06
2023-05-05T12:40:31.670Z,8.89
2023-05-05T12:43:00.235Z,8.48
2023-05-05T12:45:31.328Z,8.65
2023-05-05T12:48:01.287Z,8.80
2023-05-05T12:50:33.518Z,8.64
2023-05-05T12:53:02.021Z,8.64
2023-05-05T12:55:48.414Z,8.87
2023-05-05T12:58:16.855Z,9.12
2023-05-05T13:00:45.562Z,9.07
2023-05-05T13:03:21.727Z,9.32
2023-05-05T13:05:50.263Z,9.19
2023-05-05T13:08:18.670Z,9.10
2023-05-05T13:10:59.417Z,8.94
2023-05-05T13:13:27.875Z,8.91
2023-05-05T13:15:56.292Z,9.82
2023-05-05T13:18:26.155Z,10.10
2023-05-05T13:20:54.631Z,9.19
2023-05-05T13:23:24.119Z,9.09
2023-05-05T13:25:54.299Z,8.92
2023-05-05T13:28:22.704Z,9.79
2023-05-05T13:30:51.092Z,8.66
2023-05-05T13:33:19.457Z,9.10
2023-05-05T13:35:49.349Z,8.85
2023-05-05T13:38:17.784Z,9.28
2023-05-05T13:40:46.261Z,9.06
2023-05-05T13:43:14.708Z,9.56
2023-05-05T13:45:43.234Z,8.85
2023-05-05T13:48:11.796Z,9.34
2023-05-05T13:50:40.223Z,9.03
2023-05-05T13:53:10.159Z,8.60
2023-05-05T13:55:38.684Z,8.04
2023-05-05T13:58:08.804Z,8.22
2023-05-05T14:00:38.008Z,8.61
2023-05-05T14:03:06.856Z,8.34
2023-05-05T14:05:37.492Z,8.25
2023-05-05T14:08:06.120Z,8.53
2023-05-05T14:10:36.122Z,8.66
2023-05-05T14:13:07.469Z,8.57
2023-05-05T14:15:37.154Z,8.74
2023-05-05T14:18:05.846Z,8.90
2023-05-05T14:20:34.631Z,9.30
2023-05-05T14:23:02.993Z,9.45
2023-05-05T14:25:31.457Z,9.37
2023-05-05T14:28:01.302Z,9.04
2023-05-05T14:30:29.785Z,8.60
2023-05-05T14:32:58.252Z,8.68
2023-05-05T14:35:26.800Z,9.30
2023-05-05T14:37:55.248Z,9.14
2023-05-05T14:40:23.803Z,8.42
2023-05-05T14:42:52.267Z,8.09
2023-05-05T14:45:22.182Z,7.42
2023-05-05T14:47:50.823Z,7.85
2023-05-05T14:50:19.273Z,8.12
2023-05-05T14:52:47.782Z,7.92
2023-05-05T14:55:16.334Z,8.12
2023-05-05T14:57:44.774Z,8.02
2023-05-05T15:00:14.130Z,8.64
2023-05-05T15:02:44.169Z,8.30
2023-05-05T15:05:13.781Z,8.62
2023-05-05T15:07:42.251Z,8.14
2023-05-05T15:10:11.569Z,8.32
2023-05-05T15:12:40.227Z,8.71
2023-05-05T15:15:12.758Z,8.49
2023-05-05T15:17:41.949Z,8.72
2023-05-05T15:20:13.105Z,8.54
2023-05-05T15:22:41.872Z,8.30
2023-05-05T15:25:13.329Z,8.30
2023-05-05T15:27:42.127Z,8.41
2023-05-05T15:30:11.543Z,8.65
2023-05-05T15:32:40.062Z,8.89
2023-05-05T15:35:09.716Z,9.09
2023-05-05T15:37:39.698Z,9.12
2023-05-05T15:40:12.028Z,9.49
2023-05-05T15:42:40.619Z,9.00
2023-05-05T15:45:13.164Z,9.05
2023-05-05T15:47:41.888Z,9.21
2023-05-05T15:50:11.044Z,9.44
2023-05-05T15:52:41.060Z,9.46
2023-05-05T15:55:11.216Z,9.27
2023-05-05T15:57:40.569Z,9.12
2023-05-05T16:00:10.505Z,8.99
2023-05-05T16:02:39.118Z,9.08
2023-05-05T16:05:08.395Z,9.29
2023-05-05T16:07:37.071Z,9.06
2023-05-05T16:10:08.334Z,9.10
2023-05-05T16:12:36.874Z,8.98
2023-05-05T16:15:06.162Z,9.11
2023-05-05T16:17:36.556Z,8.88
2023-05-05T16:20:09.188Z,8.82
2023-05-05T16:22:37.714Z,8.78
2023-05-05T16:25:09.031Z,8.85
2023-05-05T16:27:37.832Z,9.06
2023-05-05T16:30:07.357Z,9.07
2023-05-05T16:32:35.986Z,8.91
2023-05-05T16:35:04.439Z,8.46
2023-05-05T16:37:33.002Z,8.61
2023-05-05T16:40:04.489Z,8.97
2023-05-05T16:42:34.365Z,8.74
2023-05-05T16:45:02.849Z,8.54
2023-05-05T16:47:31.401Z,8.82
2023-05-05T16:50:00.022Z,8.68
2023-05-05T16:52:28.608Z,8.38
2023-05-05T16:54:57.356Z,8.27
2023-05-05T16:57:25.567Z,8.62
2023-05-05T16:59:57.635Z,8.54
2023-05-05T17:02:26.296Z,8.46
2023-05-05T17:04:54.843Z,8.44
2023-05-05T17:07:23.487Z,8.39
2023-05-05T17:09:52.134Z,8.32
2023-05-05T17:12:20.711Z,8.08
2023-05-05T17:14:49.223Z,8.02
2023-05-05T17:17:19.045Z,8.00
2023-05-05T17:19:47.699Z,7.99
2023-05-05T17:22:16.739Z,8.05
2023-05-05T17:24:45.359Z,7.93
2023-05-05T17:27:14.079Z,7.66
2023-05-05T17:29:42.554Z,7.89
2023-05-05T17:32:12.412Z,8.17
2023-05-05T17:34:44.557Z,7.82
2023-05-05T17:37:13.112Z,8.16
2023-05-05T17:39:41.612Z,8.24
2023-05-05T17:42:10.109Z,8.18
2023-05-05T17:44:38.582Z,8.11
2023-05-05T17:47:07.859Z,8.07
2023-05-05T17:49:38.815Z,7.88
2023-05-05T17:52:08.693Z,7.28
2023-05-05T17:54:40.092Z,7.54
2023-05-05T17:57:08.626Z,7.39
2023-05-05T17:59:37.617Z,7.03
2023-05-05T18:02:08.934Z,7.35
2023-05-05T18:04:37.939Z,7.62
2023-05-05T18:07:06.602Z,7.89
2023-05-05T18:09:36.252Z,8.11
2023-05-05T18:12:08.240Z,7.96
2023-05-05T18:14:36.885Z,7.91
2023-05-05T18:17:05.520Z,7.36
2023-05-05T18:19:34.143Z,7.63
2023-05-05T18:22:02.852Z,7.37
2023-05-05T18:24:36.286Z,7.54
2023-05-05T18:27:07.390Z,7.57
2023-05-05T18:29:37.586Z,6.96
2023-05-05T18:32:09.523Z,6.91
2023-05-05T18:34:38.211Z,7.20
2023-05-05T18:37:06.774Z,6.79
2023-05-05T18:39:39.440Z,6.13
2023-05-05T18:42:13.059Z,5.80
2023-05-05T18:44:43.114Z,5.63
2023-05-05T18:47:12.032Z,5.45
2023-05-05T18:49:40.330Z,5.56
2023-05-05T18:52:08.836Z,6.06
2023-05-05T18:54:38.682Z,6.42
2023-05-05T18:57:07.636Z,6.75
2023-05-05T18:59:36.096Z,6.62
2023-05-05T19:02:04.687Z,6.64
2023-05-05T19:04:36.572Z,6.43
2023-05-05T19:07:05.519Z,6.52
2023-05-05T19:09:37.466Z,6.62
2023-05-05T19:12:08.067Z,6.46
2023-05-05T19:14:39.285Z,6.14
2023-05-05T19:17:08.316Z,5.76
2023-05-05T19:19:38.361Z,5.99
2023-05-05T19:22:06.988Z,6.27
2023-05-05T19:24:35.897Z,6.30
2023-05-05T19:27:04.658Z,6.42
2023-05-05T19:29:36.254Z,6.33
2023-05-05T19:32:05.095Z,6.06
2023-05-05T19:34:33.905Z,6.14
2023-05-05T19:37:02.258Z,6.26
2023-05-05T19:39:30.708Z,6.06
2023-05-05T19:41:59.109Z,6.17
2023-05-05T19:44:27.605Z,6.06
2023-05-05T19:46:57.582Z,6.22
2023-05-05T19:49:26.392Z,6.02
2023-05-05T19:51:54.611Z,6.12
2023-05-05T19:54:27.617Z,6.12
2023-05-05T19:56:57.401Z,5.98
2023-05-05T19:59:26.095Z,5.83
2023-05-05T20:01:54.559Z,5.71
2023-05-05T20:04:24.381Z,5.72
2023-05-05T20:06:52.982Z,5.65
2023-05-05T20:09:21.807Z,5.53
2023-05-05T20:11:51.060Z,5.70
2023-05-05T20:14:19.515Z,5.47
2023-05-05T20:16:48.031Z,5.33
2023-05-05T20:19:17.066Z,5.45
2023-05-05T20:21:47.139Z,5.22
2023-05-05T20:24:15.565Z,4.94
2023-05-05T20:26:44.010Z,5.12
2023-05-05T20:29:12.969Z,5.28
2023-05-05T20:31:41.587Z,4.86
2023-05-05T20:34:10.069Z,5.22
2023-05-05T20:36:38.542Z,5.21
2023-05-05T20:39:08.799Z,5.29
2023-05-05T20:41:40.275Z,5.32
2023-05-05T20:44:09.466Z,5.40
2023-05-05T20:46:37.939Z,5.30
2023-05-05T20:49:06.322Z,5.22
2023-05-05T20:51:35.240Z,5.13
2023-05-05T20:54:07.587Z,4.94
2023-05-05T20:56:36.076Z,4.89
2023-05-05T20:59:06.650Z,4.74
2023-05-05T21:01:37.842Z,4.73
2023-05-05T21:04:06.580Z,4.48
2023-05-05T21:06:34.704Z,4.49
2023-05-05T21:09:03.213Z,4.29
2023-05-05T21:11:33.162Z,4.21
2023-05-05T21:14:04.505Z,4.28
2023-05-05T21:16:33.227Z,4.15
2023-05-05T21:19:03.963Z,4.20
2023-05-05T21:21:33.168Z,4.05
2023-05-05T21:24:01.719Z,4.01
2023-05-05T21:26:30.162Z,3.92
2023-05-05T21:29:00.122Z,3.89
2023-05-05T21:31:28.710Z,3.89
2023-05-05T21:33:57.160Z,4.02
2023-05-05T21:36:25.651Z,3.93
2023-05-05T21:38:55.849Z,3.90
2023-05-05T21:41:25.213Z,3.89
2023-05-05T21:43:57.862Z,3.64
2023-05-05T21:46:28.039Z,3.60
2023-05-05T21:48:56.582Z,3.79
2023-05-05T21:51:27.729Z,3.69
2023-05-05T21:53:56.210Z,3.72
2023-05-05T21:56:24.605Z,3.69
2023-05-05T21:58:53.125Z,3.61
2023-05-05T22:01:21.624Z,3.54
2023-05-05T22:03:51.488Z,3.59
2023-05-05T22:06:20.585Z,3.62
2023-05-05T22:08:49.757Z,3.53
2023-05-05T22:11:20.631Z,3.59
2023-05-05T22:13:49.053Z,3.55
2023-05-05T22:16:18.580Z,3.58
2023-05-05T22:18:47.236Z,3.54
2023-05-05T22:21:19.973Z,3.55
2023-05-05T22:23:48.623Z,3.51
2023-05-05T22:26:17.001Z,3.49
2023-05-05T22:28:45.496Z,3.35
2023-05-05T22:31:14.075Z,3.29
2023-05-05T22:33:42.556Z,3.34
2023-05-05T22:36:11.726Z,3.35
2023-05-05T22:38:41.556Z,3.23
2023-05-05T22:41:10.166Z,3.21
2023-05-05T22:43:39.034Z,3.02
2023-05-05T22:46:07.578Z,2.94
2023-05-05T22:48:36.111Z,3.09
2023-05-05T22:51:04.574Z,3.00
2023-05-05T22:53:32.923Z,2.95
2023-05-05T22:56:02.824Z,2.98
2023-05-05T22:58:31.236Z,2.99
2023-05-05T23:00:59.779Z,3.00
2023-05-05T23:03:31.205Z,2.95
2023-05-05T23:05:59.694Z,2.95
2023-05-05T23:08:28.135Z,2.85
2023-05-05T23:10:57.394Z,2.88
2023-05-05T23:13:27.313Z,2.89
2023-05-05T23:15:55.900Z,2.80
2023-05-05T23:18:24.317Z,2.58
2023-05-05T23:20:52.775Z,2.61
2023-05-05T23:23:21.496Z,2.66
2023-05-05T23:25:51.552Z,2.69
2023-05-05T23:28:20.404Z,2.62
2023-05-05T23:30:50.285Z,2.43
2023-05-05T23:33:19.502Z,2.55
2023-05-05T23:35:48.605Z,2.65
2023-05-05T23:38:17.160Z,2.50
2023-05-05T23:40:45.584Z,2.38
2023-05-05T23:43:14.084Z,2.33
2023-05-05T23:45:42.565Z,2.32
2023-05-05T23:48:13.163Z,2.25
2023-05-05T23:50:41.582Z,2.17
2023-05-05T23:53:10.547Z,2.25
2023-05-05T23:55:38.927Z,2.20
2023-05-05T23:58:07.407Z,2.01
